sensor_id;sensor_type;location;lat;lon;timestamp;temperature;humidity
31207;DHT22;17834;52.992;8.856;2023-11-18T02:41:13;8.00;99.90
31207;DHT22;17834;52.992;8.856;2023-11-18T02:43:40;3.00;99.90
31207;DHT22;17834;52.992;8.856;2023-11-18T02:46:09;2.80;99.90
31207;DHT22;17834;52.992;8.856;2023-11-18T02:48:38;2.80;99.90
31207;DHT22;17834;52.992;8.856;2023-11-18T02:51:04;2.70;99.90
31207;DHT22;17834;52.992;8.856;2023-11-18T02:53:30;2.70;99.90
31207;DHT22;17834;52.992;8.856;2023-11-18T02:55:56;2.80;99.90
31207;DHT22;17834;52.992;8.856;2023-11-18T02:58:32;2.80;99.90
31207;DHT22;17834;52.992;8.856;2023-11-18T03:00:58;2.80;99.90
31207;DHT22;17834;52.992;8.856;2023-11-18T03:03:25;2.90;99.90
31207;DHT22;17834;52.992;8.856;2023-11-18T03:05:51;2.90;99.90
31207;DHT22;17834;52.992;8.856;2023-11-18T03:08:16;3.00;99.90
31207;DHT22;17834;52.992;8.856;2023-11-18T03:10:42;3.00;99.90
31207;DHT22;17834;52.992;8.856;2023-11-18T03:13:10;3.10;99.90
31207;DHT22;17834;52.992;8.856;2023-11-18T03:15:37;3.20;99.90
31207;DHT22;17834;52.992;8.856;2023-11-18T03:18:03;3.20;99.90
31207;DHT22;17834;52.992;8.856;2023-11-18T03:20:28;3.30;99.90
31207;DHT22;17834;52.992;8.856;2023-11-18T03:22:54;3.20;99.90
31207;DHT22;17834;52.992;8.856;2023-11-18T03:25:20;3.30;99.90
31207;DHT22;17834;52.992;8.856;2023-11-18T03:27:47;3.30;99.90
31207;DHT22;17834;52.992;8.856;2023-11-18T03:30:13;3.30;99.90
31207;DHT22;17834;52.992;8.856;2023-11-18T03:32:39;3.30;99.90
31207;DHT22;17834;52.992;8.856;2023-11-18T03:35:08;3.40;99.90
31207;DHT22;17834;52.992;8.856;2023-11-18T03:37:41;3.40;99.90
31207;DHT22;17834;52.992;8.856;2023-11-18T03:40:14;3.40;99.90
31207;DHT22;17834;52.992;8.856;2023-11-18T03:42:41;3.50;99.90
31207;DHT22;17834;52.992;8.856;2023-11-18T03:45:07;3.50;99.90
31207;DHT22;17834;52.992;8.856;2023-11-18T03:47:34;3.50;99.90
31207;DHT22;17834;52.992;8.856;2023-11-18T03:50:00;3.50;99.90
31207;DHT22;17834;52.992;8.856;2023-11-18T03:52:26;3.60;99.90
31207;DHT22;17834;52.992;8.856;2023-11-18T03:54:53;3.60;99.90
31207;DHT22;17834;52.992;8.856;2023-11-18T03:57:19;3.60;99.90
31207;DHT22;17834;52.992;8.856;2023-11-18T03:59:44;3.40;99.90
31207;DHT22;17834;52.992;8.856;2023-11-18T04:02:10;3.30;99.90
31207;DHT22;17834;52.992;8.856;2023-11-18T04:04:37;3.20;99.90
31207;DHT22;17834;52.992;8.856;2023-11-18T04:07:02;3.10;99.90
31207;DHT22;17834;52.992;8.856;2023-11-18T04:09:28;3.00;99.90
31207;DHT22;17834;52.992;8.856;2023-11-18T04:11:55;3.00;99.90
31207;DHT22;17834;52.992;8.856;2023-11-18T04:14:20;3.00;99.90
31207;DHT22;17834;52.992;8.856;2023-11-18T04:16:47;3.00;99.90
31207;DHT22;17834;52.992;8.856;2023-11-18T04:19:12;3.00;99.90
31207;DHT22;17834;52.992;8.856;2023-11-18T04:21:38;3.00;99.90
31207;DHT22;17834;52.992;8.856;2023-11-18T04:24:05;3.10;99.90
31207;DHT22;17834;52.992;8.856;2023-11-18T04:26:31;3.20;99.90
31207;DHT22;17834;52.992;8.856;2023-11-18T04:28:57;3.20;99.90
31207;DHT22;17834;52.992;8.856;2023-11-18T04:31:24;3.30;99.90
31207;DHT22;17834;52.992;8.856;2023-11-18T04:33:49;3.40;99.90
31207;DHT22;17834;52.992;8.856;2023-11-18T04:36:15;3.50;99.90
31207;DHT22;17834;52.992;8.856;2023-11-18T04:38:42;3.50;99.90
31207;DHT22;17834;52.992;8.856;2023-11-18T04:41:08;3.60;99.90
31207;DHT22;17834;52.992;8.856;2023-11-18T04:43:33;3.60;99.90
31207;DHT22;17834;52.992;8.856;2023-11-18T04:45:59;3.70;99.90
31207;DHT22;17834;52.992;8.856;2023-11-18T04:48:24;3.80;99.90
31207;DHT22;17834;52.992;8.856;2023-11-18T04:50:50;3.80;99.90
31207;DHT22;17834;52.992;8.856;2023-11-18T04:53:16;3.90;99.90
31207;DHT22;17834;52.992;8.856;2023-11-18T04:55:41;3.80;99.90
31207;DHT22;17834;52.992;8.856;2023-11-18T04:58:07;3.80;99.90
31207;DHT22;17834;52.992;8.856;2023-11-18T05:00:35;3.90;99.90
31207;DHT22;17834;52.992;8.856;2023-11-18T05:03:02;3.90;99.90
31207;DHT22;17834;52.992;8.856;2023-11-18T05:05:29;3.90;99.90
31207;DHT22;17834;52.992;8.856;2023-11-18T05:07:54;3.90;99.90
31207;DHT22;17834;52.992;8.856;2023-11-18T05:10:20;3.90;99.90
31207;DHT22;17834;52.992;8.856;2023-11-18T05:12:45;3.90;99.90
31207;DHT22;17834;52.992;8.856;2023-11-18T05:15:18;3.90;99.90
31207;DHT22;17834;52.992;8.856;2023-11-18T05:17:44;3.90;99.90
31207;DHT22;17834;52.992;8.856;2023-11-18T05:20:09;3.90;99.90
31207;DHT22;17834;52.992;8.856;2023-11-18T05:22:36;3.90;99.90
31207;DHT22;17834;52.992;8.856;2023-11-18T05:25:03;3.90;99.90
31207;DHT22;17834;52.992;8.856;2023-11-18T05:27:30;3.80;99.90
31207;DHT22;17834;52.992;8.856;2023-11-18T05:29:56;3.90;99.90
31207;DHT22;17834;52.992;8.856;2023-11-18T05:32:27;3.90;99.90
31207;DHT22;17834;52.992;8.856;2023-11-18T05:34:52;3.90;99.90
31207;DHT22;17834;52.992;8.856;2023-11-18T05:37:19;3.90;99.90
31207;DHT22;17834;52.992;8.856;2023-11-18T05:39:45;3.80;99.90
31207;DHT22;17834;52.992;8.856;2023-11-18T05:42:11;3.90;99.90
31207;DHT22;17834;52.992;8.856;2023-11-18T05:44:37;3.90;99.90
31207;DHT22;17834;52.992;8.856;2023-11-18T05:47:08;3.90;99.90
31207;DHT22;17834;52.992;8.856;2023-11-18T05:49:36;3.90;99.90
31207;DHT22;17834;52.992;8.856;2023-11-18T05:52:01;3.90;99.90
31207;DHT22;17834;52.992;8.856;2023-11-18T05:54:27;4.00;99.90
31207;DHT22;17834;52.992;8.856;2023-11-18T05:56:53;3.90;99.90
31207;DHT22;17834;52.992;8.856;2023-11-18T05:59:19;4.00;99.90
31207;DHT22;17834;52.992;8.856;2023-11-18T06:01:44;4.00;99.90
31207;DHT22;17834;52.992;8.856;2023-11-18T06:04:10;4.00;99.90
31207;DHT22;17834;52.992;8.856;2023-11-18T06:06:36;4.00;99.90
31207;DHT22;17834;52.992;8.856;2023-11-18T06:09:02;4.00;99.90
31207;DHT22;17834;52.992;8.856;2023-11-18T06:11:34;4.00;99.90
31207;DHT22;17834;52.992;8.856;2023-11-18T06:14:01;3.90;99.90
31207;DHT22;17834;52.992;8.856;2023-11-18T06:16:27;3.90;99.90
31207;DHT22;17834;52.992;8.856;2023-11-18T06:18:54;3.90;99.90
31207;DHT22;17834;52.992;8.856;2023-11-18T06:21:24;3.90;99.90
31207;DHT22;17834;52.992;8.856;2023-11-18T06:23:52;3.90;99.90
31207;DHT22;17834;52.992;8.856;2023-11-18T06:26:20;3.90;99.90
31207;DHT22;17834;52.992;8.856;2023-11-18T06:28:47;3.90;99.90
31207;DHT22;17834;52.992;8.856;2023-11-18T06:31:12;3.90;99.90
31207;DHT22;17834;52.992;8.856;2023-11-18T06:33:43;3.90;99.90
31207;DHT22;17834;52.992;8.856;2023-11-18T06:36:16;4.00;99.90
31207;DHT22;17834;52.992;8.856;2023-11-18T06:38:42;4.00;99.90
31207;DHT22;17834;52.992;8.856;2023-11-18T06:41:09;4.00;99.90
31207;DHT22;17834;52.992;8.856;2023-11-18T06:43:38;4.00;99.90
31207;DHT22;17834;52.992;8.856;2023-11-18T06:46:24;4.00;99.90
31207;DHT22;17834;52.992;8.856;2023-11-18T06:48:51;4.10;99.90
31207;DHT22;17834;52.992;8.856;2023-11-18T06:51:24;4.10;99.90
31207;DHT22;17834;52.992;8.856;2023-11-18T06:53:56;4.10;99.90
31207;DHT22;17834;52.992;8.856;2023-11-18T06:56:29;4.10;99.90
31207;DHT22;17834;52.992;8.856;2023-11-18T06:58:56;4.20;99.90
31207;DHT22;17834;52.992;8.856;2023-11-18T07:01:22;4.20;99.90
31207;DHT22;17834;52.992;8.856;2023-11-18T07:03:48;4.20;99.90
31207;DHT22;17834;52.992;8.856;2023-11-18T07:06:17;4.30;99.90
31207;DHT22;17834;52.992;8.856;2023-11-18T07:08:51;4.30;99.90
31207;DHT22;17834;52.992;8.856;2023-11-18T07:11:17;4.30;99.90
31207;DHT22;17834;52.992;8.856;2023-11-18T07:13:46;4.30;99.90
31207;DHT22;17834;52.992;8.856;2023-11-18T07:16:13;4.30;99.90
31207;DHT22;17834;52.992;8.856;2023-11-18T07:18:40;4.40;99.90
31207;DHT22;17834;52.992;8.856;2023-11-18T07:21:06;4.40;99.90
31207;DHT22;17834;52.992;8.856;2023-11-18T07:23:32;4.40;99.90
31207;DHT22;17834;52.992;8.856;2023-11-18T07:25:58;4.50;99.90
31207;DHT22;17834;52.992;8.856;2023-11-18T07:28:23;4.50;99.90
31207;DHT22;17834;52.992;8.856;2023-11-18T07:30:49;4.50;99.90
31207;DHT22;17834;52.992;8.856;2023-11-18T07:33:15;4.60;99.90
31207;DHT22;17834;52.992;8.856;2023-11-18T07:35:42;4.60;99.90
31207;DHT22;17834;52.992;8.856;2023-11-18T07:38:07;4.60;99.90
31207;DHT22;17834;52.992;8.856;2023-11-18T07:40:33;4.70;99.90
31207;DHT22;17834;52.992;8.856;2023-11-18T07:42:59;4.80;99.90
31207;DHT22;17834;52.992;8.856;2023-11-18T07:45:34;4.80;99.90
31207;DHT22;17834;52.992;8.856;2023-11-18T07:47:59;4.80;99.90
31207;DHT22;17834;52.992;8.856;2023-11-18T07:50:25;4.80;99.90
31207;DHT22;17834;52.992;8.856;2023-11-18T07:52:52;4.80;99.90
31207;DHT22;17834;52.992;8.856;2023-11-18T07:55:17;4.90;99.90
31207;DHT22;17834;52.992;8.856;2023-11-18T07:57:43;4.90;99.90
31207;DHT22;17834;52.992;8.856;2023-11-18T08:00:09;4.90;99.90
31207;DHT22;17834;52.992;8.856;2023-11-18T08:02:36;4.90;99.90
31207;DHT22;17834;52.992;8.856;2023-11-18T08:05:02;5.00;99.90
31207;DHT22;17834;52.992;8.856;2023-11-18T08:07:28;5.00;99.90
31207;DHT22;17834;52.992;8.856;2023-11-18T08:09:54;5.00;99.90
31207;DHT22;17834;52.992;8.856;2023-11-18T08:12:20;5.00;99.90
31207;DHT22;17834;52.992;8.856;2023-11-18T08:14:46;5.10;99.90
31207;DHT22;17834;52.992;8.856;2023-11-18T08:17:12;5.10;99.90
31207;DHT22;17834;52.992;8.856;2023-11-18T08:19:38;5.10;99.90
31207;DHT22;17834;52.992;8.856;2023-11-18T08:22:04;5.10;99.90
31207;DHT22;17834;52.992;8.856;2023-11-18T08:24:31;5.20;99.90
31207;DHT22;17834;52.992;8.856;2023-11-18T08:26:58;5.20;99.90
31207;DHT22;17834;52.992;8.856;2023-11-18T08:29:24;5.20;99.90
31207;DHT22;17834;52.992;8.856;2023-11-18T08:31:53;5.30;99.90
31207;DHT22;17834;52.992;8.856;2023-11-18T08:34:19;5.30;99.90
31207;DHT22;17834;52.992;8.856;2023-11-18T08:36:44;5.30;99.90
31207;DHT22;17834;52.992;8.856;2023-11-18T08:39:10;5.40;99.90
31207;DHT22;17834;52.992;8.856;2023-11-18T08:41:36;5.40;99.90
31207;DHT22;17834;52.992;8.856;2023-11-18T08:44:01;5.40;99.90
31207;DHT22;17834;52.992;8.856;2023-11-18T08:46:27;5.50;99.90
31207;DHT22;17834;52.992;8.856;2023-11-18T08:48:53;5.50;99.90
31207;DHT22;17834;52.992;8.856;2023-11-18T08:51:21;5.50;99.90
31207;DHT22;17834;52.992;8.856;2023-11-18T08:53:46;5.50;99.90
31207;DHT22;17834;52.992;8.856;2023-11-18T08:56:13;5.50;99.90
31207;DHT22;17834;52.992;8.856;2023-11-18T08:58:44;5.50;99.90
31207;DHT22;17834;52.992;8.856;2023-11-18T09:01:10;5.50;99.90
31207;DHT22;17834;52.992;8.856;2023-11-18T09:03:40;5.50;99.90
31207;DHT22;17834;52.992;8.856;2023-11-18T09:06:10;5.50;99.90
31207;DHT22;17834;52.992;8.856;2023-11-18T09:08:51;5.50;99.90
31207;DHT22;17834;52.992;8.856;2023-11-18T09:11:20;5.40;99.90
31207;DHT22;17834;52.992;8.856;2023-11-18T09:13:47;5.50;99.90
31207;DHT22;17834;52.992;8.856;2023-11-18T09:16:15;5.60;99.90
31207;DHT22;17834;52.992;8.856;2023-11-18T09:18:43;5.70;99.90
31207;DHT22;17834;52.992;8.856;2023-11-18T09:21:11;5.90;99.90
31207;DHT22;17834;52.992;8.856;2023-11-18T09:23:41;6.00;99.90
31207;DHT22;17834;52.992;8.856;2023-11-18T09:26:07;6.10;99.90
31207;DHT22;17834;52.992;8.856;2023-11-18T09:28:36;6.10;99.90
31207;DHT22;17834;52.992;8.856;2023-11-18T09:31:02;6.10;99.90
31207;DHT22;17834;52.992;8.856;2023-11-18T09:33:31;6.10;99.90
31207;DHT22;17834;52.992;8.856;2023-11-18T09:36:00;6.20;99.90
31207;DHT22;17834;52.992;8.856;2023-11-18T09:38:30;6.20;99.90
31207;DHT22;17834;52.992;8.856;2023-11-18T09:40:59;6.20;99.90
31207;DHT22;17834;52.992;8.856;2023-11-18T09:43:29;6.30;99.90
31207;DHT22;17834;52.992;8.856;2023-11-18T09:46:05;6.30;99.90
31207;DHT22;17834;52.992;8.856;2023-11-18T09:48:43;6.40;99.90
31207;DHT22;17834;52.992;8.856;2023-11-18T09:51:22;6.50;99.90
31207;DHT22;17834;52.992;8.856;2023-11-18T09:53:52;6.60;99.90
31207;DHT22;17834;52.992;8.856;2023-11-18T09:59:18;6.50;99.90
31207;DHT22;17834;52.992;8.856;2023-11-18T10:01:51;6.60;99.90
31207;DHT22;17834;52.992;8.856;2023-11-18T10:04:19;6.50;99.90
31207;DHT22;17834;52.992;8.856;2023-11-18T10:06:46;6.60;99.90
31207;DHT22;17834;52.992;8.856;2023-11-18T10:09:13;6.60;99.90
31207;DHT22;17834;52.992;8.856;2023-11-18T10:11:47;6.70;99.90
31207;DHT22;17834;52.992;8.856;2023-11-18T10:14:16;6.70;99.90
31207;DHT22;17834;52.992;8.856;2023-11-18T10:19:11;6.80;99.90
31207;DHT22;17834;52.992;8.856;2023-11-18T10:21:37;6.70;99.90
31207;DHT22;17834;52.992;8.856;2023-11-18T10:24:07;6.60;99.90
31207;DHT22;17834;52.992;8.856;2023-11-18T10:27:05;6.70;99.90
31207;DHT22;17834;52.992;8.856;2023-11-18T10:29:34;6.70;99.90
31207;DHT22;17834;52.992;8.856;2023-11-18T10:32:06;6.60;99.90
31207;DHT22;17834;52.992;8.856;2023-11-18T10:34:45;6.60;99.90
31207;DHT22;17834;52.992;8.856;2023-11-18T10:37:10;6.70;99.90
31207;DHT22;17834;52.992;8.856;2023-11-18T10:39:36;6.70;99.90
31207;DHT22;17834;52.992;8.856;2023-11-18T10:42:02;6.70;99.90
31207;DHT22;17834;52.992;8.856;2023-11-18T10:44:28;6.80;99.90
31207;DHT22;17834;52.992;8.856;2023-11-18T10:46:58;6.80;99.90
31207;DHT22;17834;52.992;8.856;2023-11-18T10:49:28;6.80;99.90
31207;DHT22;17834;52.992;8.856;2023-11-18T10:51:55;6.90;99.90
31207;DHT22;17834;52.992;8.856;2023-11-18T10:54:21;7.00;99.90
31207;DHT22;17834;52.992;8.856;2023-11-18T10:56:50;7.20;99.90
31207;DHT22;17834;52.992;8.856;2023-11-18T10:59:16;7.30;99.90
31207;DHT22;17834;52.992;8.856;2023-11-18T11:01:43;7.40;99.90
31207;DHT22;17834;52.992;8.856;2023-11-18T11:04:13;7.50;99.90
31207;DHT22;17834;52.992;8.856;2023-11-18T11:06:46;7.60;99.90
31207;DHT22;17834;52.992;8.856;2023-11-18T11:09:21;7.70;99.90
31207;DHT22;17834;52.992;8.856;2023-11-18T11:11:57;7.80;99.90
31207;DHT22;17834;52.992;8.856;2023-11-18T11:14:37;7.90;99.90
31207;DHT22;17834;52.992;8.856;2023-11-18T11:17:13;8.00;99.90
31207;DHT22;17834;52.992;8.856;2023-11-18T11:19:55;8.00;99.90
31207;DHT22;17834;52.992;8.856;2023-11-18T11:22:24;8.00;99.90
31207;DHT22;17834;52.992;8.856;2023-11-18T11:25:11;8.00;99.90
31207;DHT22;17834;52.992;8.856;2023-11-18T11:28:00;8.00;99.90
31207;DHT22;17834;52.992;8.856;2023-11-18T11:30:44;8.10;99.90
31207;DHT22;17834;52.992;8.856;2023-11-18T11:33:32;8.00;99.90
31207;DHT22;17834;52.992;8.856;2023-11-18T11:36:07;8.00;99.90
31207;DHT22;17834;52.992;8.856;2023-11-18T11:38:37;7.90;99.90
31207;DHT22;17834;52.992;8.856;2023-11-18T11:41:04;7.80;99.90
31207;DHT22;17834;52.992;8.856;2023-11-18T11:43:31;7.80;99.90
31207;DHT22;17834;52.992;8.856;2023-11-18T11:46:01;7.80;99.90
31207;DHT22;17834;52.992;8.856;2023-11-18T11:48:29;7.80;99.90
31207;DHT22;17834;52.992;8.856;2023-11-18T11:53:44;7.80;99.90
31207;DHT22;17834;52.992;8.856;2023-11-18T11:56:11;7.80;99.90
31207;DHT22;17834;52.992;8.856;2023-11-18T11:58:46;7.80;99.90
31207;DHT22;17834;52.992;8.856;2023-11-18T12:01:26;7.90;99.90
31207;DHT22;17834;52.992;8.856;2023-11-18T12:03:57;7.90;99.90
31207;DHT22;17834;52.992;8.856;2023-11-18T12:06:26;7.90;99.90
31207;DHT22;17834;52.992;8.856;2023-11-18T12:08:53;7.90;99.90
31207;DHT22;17834;52.992;8.856;2023-11-18T12:11:20;8.00;99.90
31207;DHT22;17834;52.992;8.856;2023-11-18T12:14:04;8.00;99.90
31207;DHT22;17834;52.992;8.856;2023-11-18T12:17:07;7.90;99.90
31207;DHT22;17834;52.992;8.856;2023-11-18T12:19:46;7.90;99.90
31207;DHT22;17834;52.992;8.856;2023-11-18T12:27:49;7.80;99.90
31207;DHT22;17834;52.992;8.856;2023-11-18T12:33:02;7.70;99.90
31207;DHT22;17834;52.992;8.856;2023-11-18T12:41:38;7.60;99.90
31207;DHT22;17834;52.992;8.856;2023-11-18T12:44:30;7.50;99.90
31207;DHT22;17834;52.992;8.856;2023-11-18T12:47:04;7.50;99.90
31207;DHT22;17834;52.992;8.856;2023-11-18T12:49:46;7.40;99.90
31207;DHT22;17834;52.992;8.856;2023-11-18T12:52:20;7.40;99.90
31207;DHT22;17834;52.992;8.856;2023-11-18T12:54:47;7.30;99.90
31207;DHT22;17834;52.992;8.856;2023-11-18T12:57:36;7.30;99.90
31207;DHT22;17834;52.992;8.856;2023-11-18T13:00:04;7.30;99.90
31207;DHT22;17834;52.992;8.856;2023-11-18T13:02:31;7.30;99.90
31207;DHT22;17834;52.992;8.856;2023-11-18T13:04:57;7.20;99.90
31207;DHT22;17834;52.992;8.856;2023-11-18T13:07:24;7.10;99.90
31207;DHT22;17834;52.992;8.856;2023-11-18T13:09:50;7.10;99.90
31207;DHT22;17834;52.992;8.856;2023-11-18T13:12:17;7.10;99.90
31207;DHT22;17834;52.992;8.856;2023-11-18T13:14:45;7.10;99.90
31207;DHT22;17834;52.992;8.856;2023-11-18T13:17:17;7.00;99.90
31207;DHT22;17834;52.992;8.856;2023-11-18T13:19:44;6.90;99.90
31207;DHT22;17834;52.992;8.856;2023-11-18T13:22:13;6.90;99.90
31207;DHT22;17834;52.992;8.856;2023-11-18T13:24:40;6.90;99.90
31207;DHT22;17834;52.992;8.856;2023-11-18T13:27:07;6.90;99.90
31207;DHT22;17834;52.992;8.856;2023-11-18T13:29:36;6.80;99.90
31207;DHT22;17834;52.992;8.856;2023-11-18T13:32:02;6.80;99.90
31207;DHT22;17834;52.992;8.856;2023-11-18T13:34:33;6.80;99.90
31207;DHT22;17834;52.992;8.856;2023-11-18T13:37:01;6.70;99.90
31207;DHT22;17834;52.992;8.856;2023-11-18T13:39:27;6.70;99.90
31207;DHT22;17834;52.992;8.856;2023-11-18T13:41:53;6.70;99.90
31207;DHT22;17834;52.992;8.856;2023-11-18T13:44:35;6.60;99.90
31207;DHT22;17834;52.992;8.856;2023-11-18T13:47:04;6.70;99.90
31207;DHT22;17834;52.992;8.856;2023-11-18T13:49:31;6.70;99.90
31207;DHT22;17834;52.992;8.856;2023-11-18T13:51:57;6.60;99.90
31207;DHT22;17834;52.992;8.856;2023-11-18T13:54:24;6.60;99.90
31207;DHT22;17834;52.992;8.856;2023-11-18T13:56:50;6.70;99.90
31207;DHT22;17834;52.992;8.856;2023-11-18T13:59:17;6.60;99.90
31207;DHT22;17834;52.992;8.856;2023-11-18T14:01:42;6.70;99.90
31207;DHT22;17834;52.992;8.856;2023-11-18T14:04:09;6.60;99.90
31207;DHT22;17834;52.992;8.856;2023-11-18T14:06:35;6.60;99.90
31207;DHT22;17834;52.992;8.856;2023-11-18T14:09:02;6.60;99.90
31207;DHT22;17834;52.992;8.856;2023-11-18T14:11:30;6.60;99.90
31207;DHT22;17834;52.992;8.856;2023-11-18T14:13:55;6.60;99.90
31207;DHT22;17834;52.992;8.856;2023-11-18T14:16:21;6.60;99.90
31207;DHT22;17834;52.992;8.856;2023-11-18T14:18:49;6.60;99.90
31207;DHT22;17834;52.992;8.856;2023-11-18T14:21:14;6.60;99.90
31207;DHT22;17834;52.992;8.856;2023-11-18T14:23:40;6.60;99.90
31207;DHT22;17834;52.992;8.856;2023-11-18T14:26:06;6.60;99.90
31207;DHT22;17834;52.992;8.856;2023-11-18T14:28:35;6.60;99.90
31207;DHT22;17834;52.992;8.856;2023-11-18T15:37:11;6.60;99.90
31207;DHT22;17834;52.992;8.856;2023-11-18T15:39:36;6.00;99.90
31207;DHT22;17834;52.992;8.856;2023-11-18T15:42:02;6.00;99.90
31207;DHT22;17834;52.992;8.856;2023-11-18T15:44:31;5.90;99.90
31207;DHT22;17834;52.992;8.856;2023-11-18T15:46:58;5.90;99.90
31207;DHT22;17834;52.992;8.856;2023-11-18T15:49:24;5.90;99.90
31207;DHT22;17834;52.992;8.856;2023-11-18T15:51:50;5.90;99.90
31207;DHT22;17834;52.992;8.856;2023-11-18T15:54:15;5.90;99.90
31207;DHT22;17834;52.992;8.856;2023-11-18T15:56:41;5.90;99.90
31207;DHT22;17834;52.992;8.856;2023-11-18T15:59:08;5.90;99.90
31207;DHT22;17834;52.992;8.856;2023-11-18T16:01:34;5.90;99.90
31207;DHT22;17834;52.992;8.856;2023-11-18T16:04:00;5.90;99.90
31207;DHT22;17834;52.992;8.856;2023-11-18T16:06:26;5.90;99.90
31207;DHT22;17834;52.992;8.856;2023-11-18T16:08:51;5.80;99.90
31207;DHT22;17834;52.992;8.856;2023-11-18T16:11:17;5.80;99.90
31207;DHT22;17834;52.992;8.856;2023-11-18T16:13:43;5.80;99.90
31207;DHT22;17834;52.992;8.856;2023-11-18T16:16:09;5.80;99.90
31207;DHT22;17834;52.992;8.856;2023-11-18T16:18:35;5.80;99.90
31207;DHT22;17834;52.992;8.856;2023-11-18T16:21:01;5.80;99.90
31207;DHT22;17834;52.992;8.856;2023-11-18T16:23:29;5.80;99.90
31207;DHT22;17834;52.992;8.856;2023-11-18T16:26:00;5.80;99.90
31207;DHT22;17834;52.992;8.856;2023-11-18T16:28:26;5.80;99.90
31207;DHT22;17834;52.992;8.856;2023-11-18T16:30:52;5.80;99.90
31207;DHT22;17834;52.992;8.856;2023-11-18T16:33:18;5.80;99.90
31207;DHT22;17834;52.992;8.856;2023-11-18T16:35:44;5.80;99.90
31207;DHT22;17834;52.992;8.856;2023-11-18T16:38:10;5.80;99.90
31207;DHT22;17834;52.992;8.856;2023-11-18T16:40:36;5.80;99.90
31207;DHT22;17834;52.992;8.856;2023-11-18T16:43:01;5.80;99.90
31207;DHT22;17834;52.992;8.856;2023-11-18T16:45:27;5.80;99.90
31207;DHT22;17834;52.992;8.856;2023-11-18T16:47:53;5.80;99.90
31207;DHT22;17834;52.992;8.856;2023-11-18T16:50:20;5.80;99.90
31207;DHT22;17834;52.992;8.856;2023-11-18T16:52:46;5.80;99.90
31207;DHT22;17834;52.992;8.856;2023-11-18T16:55:13;5.80;99.90
31207;DHT22;17834;52.992;8.856;2023-11-18T16:57:39;5.80;99.90
31207;DHT22;17834;52.992;8.856;2023-11-18T17:00:09;5.80;99.90
31207;DHT22;17834;52.992;8.856;2023-11-18T17:02:45;5.80;99.90
31207;DHT22;17834;52.992;8.856;2023-11-18T17:05:12;5.80;99.90
31207;DHT22;17834;52.992;8.856;2023-11-18T17:07:37;5.80;99.90
31207;DHT22;17834;52.992;8.856;2023-11-18T17:10:03;5.80;99.90
31207;DHT22;17834;52.992;8.856;2023-11-18T17:12:32;5.80;99.90
31207;DHT22;17834;52.992;8.856;2023-11-18T17:14:58;5.80;99.90
31207;DHT22;17834;52.992;8.856;2023-11-18T17:17:23;5.80;99.90
31207;DHT22;17834;52.992;8.856;2023-11-18T17:19:49;5.80;99.90
31207;DHT22;17834;52.992;8.856;2023-11-18T17:22:15;5.80;99.90
31207;DHT22;17834;52.992;8.856;2023-11-18T17:24:41;5.80;99.90
31207;DHT22;17834;52.992;8.856;2023-11-18T17:27:07;5.80;99.90
31207;DHT22;17834;52.992;8.856;2023-11-18T17:29:33;5.80;99.90
31207;DHT22;17834;52.992;8.856;2023-11-18T17:31:58;5.80;99.90
31207;DHT22;17834;52.992;8.856;2023-11-18T17:34:24;5.80;99.90
31207;DHT22;17834;52.992;8.856;2023-11-18T17:36:49;5.80;99.90
31207;DHT22;17834;52.992;8.856;2023-11-18T17:39:16;5.80;99.90
31207;DHT22;17834;52.992;8.856;2023-11-18T17:41:43;5.80;99.90
31207;DHT22;17834;52.992;8.856;2023-11-18T17:44:09;5.80;99.90
31207;DHT22;17834;52.992;8.856;2023-11-18T17:46:35;5.80;99.90
31207;DHT22;17834;52.992;8.856;2023-11-18T17:49:01;5.90;99.90
31207;DHT22;17834;52.992;8.856;2023-11-18T17:51:27;6.20;99.90
31207;DHT22;17834;52.992;8.856;2023-11-18T17:53:54;6.50;99.90
31207;DHT22;17834;52.992;8.856;2023-11-18T17:56:20;6.70;99.90
31207;DHT22;17834;52.992;8.856;2023-11-18T17:58:45;7.00;99.90
31207;DHT22;17834;52.992;8.856;2023-11-18T18:01:11;7.20;99.90
